sensor_id;sensor_type;location;lat;lon;timestamp;P1;durP1;ratioP1;P2;durP2;ratioP2
65009;SDS011;51556;50.002;22.014;2023-06-24T00:01:24;23.20;;;9.70;;
65009;SDS011;51556;50.002;22.014;2023-06-24T00:03:50;16.00;;;9.30;;
65009;SDS011;51556;50.002;22.014;2023-06-24T00:06:21;14.40;;;7.80;;
65009;SDS011;51556;50.002;22.014;2023-06-24T00:08:51;16.30;;;8.70;;
65009;SDS011;51556;50.002;22.014;2023-06-24T00:11:17;17.00;;;9.10;;
65009;SDS011;51556;50.002;22.014;2023-06-24T00:13:43;14.10;;;8.30;;
65009;SDS011;51556;50.002;22.014;2023-06-24T00:16:09;12.70;;;8.40;;
65009;SDS011;51556;50.002;22.014;2023-06-24T00:18:35;16.10;;;8.40;;
65009;SDS011;51556;50.002;22.014;2023-06-24T00:21:02;17.10;;;8.50;;
65009;SDS011;51556;50.002;22.014;2023-06-24T00:23:29;16.40;;;9.20;;
65009;SDS011;51556;50.002;22.014;2023-06-24T00:26:00;16.50;;;8.40;;
65009;SDS011;51556;50.002;22.014;2023-06-24T00:28:26;15.00;;;8.90;;
65009;SDS011;51556;50.002;22.014;2023-06-24T00:30:52;16.40;;;8.80;;
65009;SDS011;51556;50.002;22.014;2023-06-24T00:33:17;14.80;;;8.60;;
65009;SDS011;51556;50.002;22.014;2023-06-24T00:35:45;16.90;;;8.50;;
65009;SDS011;51556;50.002;22.014;2023-06-24T00:38:11;18.60;;;8.60;;
65009;SDS011;51556;50.002;22.014;2023-06-24T00:40:37;18.50;;;8.00;;
65009;SDS011;51556;50.002;22.014;2023-06-24T00:43:04;15.80;;;8.70;;
65009;SDS011;51556;50.002;22.014;2023-06-24T00:45:30;15.20;;;8.20;;
65009;SDS011;51556;50.002;22.014;2023-06-24T00:47:57;12.30;;;8.20;;
65009;SDS011;51556;50.002;22.014;2023-06-24T00:50:26;15.90;;;8.00;;
65009;SDS011;51556;50.002;22.014;2023-06-24T00:52:52;14.00;;;7.80;;
65009;SDS011;51556;50.002;22.014;2023-06-24T00:55:18;12.20;;;7.00;;
65009;SDS011;51556;50.002;22.014;2023-06-24T00:57:47;14.50;;;7.40;;
65009;SDS011;51556;50.002;22.014;2023-06-24T01:00:20;11.60;;;7.10;;
65009;SDS011;51556;50.002;22.014;2023-06-24T01:02:48;14.60;;;7.40;;
65009;SDS011;51556;50.002;22.014;2023-06-24T01:05:14;13.00;;;7.00;;
65009;SDS011;51556;50.002;22.014;2023-06-24T01:07:40;14.40;;;8.00;;
65009;SDS011;51556;50.002;22.014;2023-06-24T01:10:07;14.60;;;7.80;;
65009;SDS011;51556;50.002;22.014;2023-06-24T01:12:37;12.90;;;7.40;;
65009;SDS011;51556;50.002;22.014;2023-06-24T01:15:04;14.20;;;7.50;;
65009;SDS011;51556;50.002;22.014;2023-06-24T01:17:39;14.20;;;7.40;;
65009;SDS011;51556;50.002;22.014;2023-06-24T01:20:51;11.90;;;7.60;;
65009;SDS011;51556;50.002;22.014;2023-06-24T01:23:20;11.80;;;6.70;;
65009;SDS011;51556;50.002;22.014;2023-06-24T01:34:28;11.50;;;7.00;;
65009;SDS011;51556;50.002;22.014;2023-06-24T01:39:46;13.10;;;7.10;;
65009;SDS011;51556;50.002;22.014;2023-06-24T01:42:16;14.10;;;7.50;;
65009;SDS011;51556;50.002;22.014;2023-06-24T01:44:45;13.10;;;7.60;;
65009;SDS011;51556;50.002;22.014;2023-06-24T01:47:13;13.90;;;7.90;;
65009;SDS011;51556;50.002;22.014;2023-06-24T01:49:43;15.30;;;7.30;;
65009;SDS011;51556;50.002;22.014;2023-06-24T01:52:10;13.40;;;7.40;;
65009;SDS011;51556;50.002;22.014;2023-06-24T01:54:38;12.80;;;7.90;;
65009;SDS011;51556;50.002;22.014;2023-06-24T01:57:07;12.70;;;7.30;;
65009;SDS011;51556;50.002;22.014;2023-06-24T01:59:37;17.70;;;7.80;;
65009;SDS011;51556;50.002;22.014;2023-06-24T02:02:05;10.60;;;8.00;;
65009;SDS011;51556;50.002;22.014;2023-06-24T02:04:33;15.00;;;8.00;;
65009;SDS011;51556;50.002;22.014;2023-06-24T02:07:01;16.60;;;7.80;;
65009;SDS011;51556;50.002;22.014;2023-06-24T02:09:28;14.20;;;8.10;;
65009;SDS011;51556;50.002;22.014;2023-06-24T02:11:59;12.00;;;8.20;;
65009;SDS011;51556;50.002;22.014;2023-06-24T02:14:28;14.80;;;7.60;;
65009;SDS011;51556;50.002;22.014;2023-06-24T02:16:55;16.50;;;9.10;;
65009;SDS011;51556;50.002;22.014;2023-06-24T02:19:24;15.30;;;8.40;;
65009;SDS011;51556;50.002;22.014;2023-06-24T02:21:52;16.30;;;8.50;;
65009;SDS011;51556;50.002;22.014;2023-06-24T02:24:19;18.60;;;8.50;;
65009;SDS011;51556;50.002;22.014;2023-06-24T02:26:46;12.40;;;8.60;;
65009;SDS011;51556;50.002;22.014;2023-06-24T02:29:15;16.20;;;9.30;;
65009;SDS011;51556;50.002;22.014;2023-06-24T02:31:42;12.90;;;8.20;;
65009;SDS011;51556;50.002;22.014;2023-06-24T02:34:08;15.30;;;9.50;;
65009;SDS011;51556;50.002;22.014;2023-06-24T02:36:34;15.60;;;9.80;;
65009;SDS011;51556;50.002;22.014;2023-06-24T02:38:59;22.30;;;10.40;;
65009;SDS011;51556;50.002;22.014;2023-06-24T02:41:25;15.70;;;10.10;;
65009;SDS011;51556;50.002;22.014;2023-06-24T02:43:50;17.10;;;9.30;;
65009;SDS011;51556;50.002;22.014;2023-06-24T02:46:16;16.70;;;9.50;;
65009;SDS011;51556;50.002;22.014;2023-06-24T02:48:43;12.60;;;8.90;;
65009;SDS011;51556;50.002;22.014;2023-06-24T02:51:11;16.70;;;9.60;;
65009;SDS011;51556;50.002;22.014;2023-06-24T02:53:38;14.20;;;9.20;;
65009;SDS011;51556;50.002;22.014;2023-06-24T02:56:04;14.40;;;9.60;;
65009;SDS011;51556;50.002;22.014;2023-06-24T02:58:30;9.00;;;7.40;;
65009;SDS011;51556;50.002;22.014;2023-06-24T03:00:58;13.70;;;7.90;;
65009;SDS011;51556;50.002;22.014;2023-06-24T03:03:25;12.40;;;8.30;;
65009;SDS011;51556;50.002;22.014;2023-06-24T03:05:52;11.10;;;7.00;;
65009;SDS011;51556;50.002;22.014;2023-06-24T03:08:19;8.30;;;6.30;;
65009;SDS011;51556;50.002;22.014;2023-06-24T03:10:45;9.90;;;6.00;;
65009;SDS011;51556;50.002;22.014;2023-06-24T03:13:11;7.10;;;6.20;;
65009;SDS011;51556;50.002;22.014;2023-06-24T03:15:36;7.50;;;6.30;;
65009;SDS011;51556;50.002;22.014;2023-06-24T03:18:02;11.00;;;6.80;;
65009;SDS011;51556;50.002;22.014;2023-06-24T03:20:27;8.60;;;6.40;;
65009;SDS011;51556;50.002;22.014;2023-06-24T03:22:53;12.10;;;8.10;;
65009;SDS011;51556;50.002;22.014;2023-06-24T03:25:19;10.90;;;7.50;;
65009;SDS011;51556;50.002;22.014;2023-06-24T03:27:45;10.30;;;8.00;;
65009;SDS011;51556;50.002;22.014;2023-06-24T03:30:10;16.10;;;9.50;;
65009;SDS011;51556;50.002;22.014;2023-06-24T03:32:39;10.80;;;8.80;;
65009;SDS011;51556;50.002;22.014;2023-06-24T03:35:05;10.30;;;6.40;;
65009;SDS011;51556;50.002;22.014;2023-06-24T03:37:32;6.80;;;3.70;;
65009;SDS011;51556;50.002;22.014;2023-06-24T03:39:57;7.20;;;3.60;;
65009;SDS011;51556;50.002;22.014;2023-06-24T03:42:23;6.10;;;3.50;;
65009;SDS011;51556;50.002;22.014;2023-06-24T03:44:48;6.70;;;4.40;;
65009;SDS011;51556;50.002;22.014;2023-06-24T03:47:14;11.00;;;6.20;;
65009;SDS011;51556;50.002;22.014;2023-06-24T03:49:39;12.30;;;8.80;;
65009;SDS011;51556;50.002;22.014;2023-06-24T03:52:05;13.20;;;9.90;;
65009;SDS011;51556;50.002;22.014;2023-06-24T03:54:34;4.70;;;3.20;;
65009;SDS011;51556;50.002;22.014;2023-06-24T03:56:59;5.60;;;3.40;;
65009;SDS011;51556;50.002;22.014;2023-06-24T03:59:24;8.00;;;4.30;;
65009;SDS011;51556;50.002;22.014;2023-06-24T04:01:50;12.60;;;5.50;;
65009;SDS011;51556;50.002;22.014;2023-06-24T04:04:16;10.70;;;6.30;;
65009;SDS011;51556;50.002;22.014;2023-06-24T04:06:42;13.10;;;7.20;;
65009;SDS011;51556;50.002;22.014;2023-06-24T04:09:07;11.40;;;6.70;;
65009;SDS011;51556;50.002;22.014;2023-06-24T04:11:35;11.80;;;8.60;;
65009;SDS011;51556;50.002;22.014;2023-06-24T04:14:01;12.60;;;8.90;;
65009;SDS011;51556;50.002;22.014;2023-06-24T04:16:26;10.60;;;6.90;;
65009;SDS011;51556;50.002;22.014;2023-06-24T04:18:52;10.60;;;6.70;;
65009;SDS011;51556;50.002;22.014;2023-06-24T04:21:17;10.20;;;6.00;;
65009;SDS011;51556;50.002;22.014;2023-06-24T04:23:43;12.20;;;7.50;;
65009;SDS011;51556;50.002;22.014;2023-06-24T04:26:09;9.10;;;5.20;;
65009;SDS011;51556;50.002;22.014;2023-06-24T04:28:35;8.90;;;5.00;;
65009;SDS011;51556;50.002;22.014;2023-06-24T04:31:00;10.90;;;5.60;;
65009;SDS011;51556;50.002;22.014;2023-06-24T04:33:26;11.30;;;5.00;;
65009;SDS011;51556;50.002;22.014;2023-06-24T04:35:51;8.60;;;5.50;;
65009;SDS011;51556;50.002;22.014;2023-06-24T04:38:17;10.50;;;5.70;;
65009;SDS011;51556;50.002;22.014;2023-06-24T04:40:43;7.60;;;5.10;;
65009;SDS011;51556;50.002;22.014;2023-06-24T04:43:10;12.00;;;6.40;;
65009;SDS011;51556;50.002;22.014;2023-06-24T04:45:35;11.60;;;6.50;;
65009;SDS011;51556;50.002;22.014;2023-06-24T04:48:01;10.80;;;6.10;;
65009;SDS011;51556;50.002;22.014;2023-06-24T04:50:26;10.60;;;6.30;;
65009;SDS011;51556;50.002;22.014;2023-06-24T04:52:52;8.20;;;5.70;;
65009;SDS011;51556;50.002;22.014;2023-06-24T04:55:20;12.00;;;7.00;;
65009;SDS011;51556;50.002;22.014;2023-06-24T04:57:47;9.30;;;7.40;;
65009;SDS011;51556;50.002;22.014;2023-06-24T05:00:12;8.60;;;7.10;;
65009;SDS011;51556;50.002;22.014;2023-06-24T05:02:38;11.90;;;8.30;;
65009;SDS011;51556;50.002;22.014;2023-06-24T05:05:03;12.00;;;9.40;;
65009;SDS011;51556;50.002;22.014;2023-06-24T05:07:29;12.90;;;9.60;;
65009;SDS011;51556;50.002;22.014;2023-06-24T05:09:55;15.30;;;11.60;;
65009;SDS011;51556;50.002;22.014;2023-06-24T05:12:20;17.80;;;13.20;;
65009;SDS011;51556;50.002;22.014;2023-06-24T05:14:49;21.80;;;15.30;;
65009;SDS011;51556;50.002;22.014;2023-06-24T05:17:16;20.70;;;16.20;;
65009;SDS011;51556;50.002;22.014;2023-06-24T05:19:41;21.40;;;15.70;;
65009;SDS011;51556;50.002;22.014;2023-06-24T05:22:08;22.90;;;17.20;;
65009;SDS011;51556;50.002;22.014;2023-06-24T05:24:34;26.60;;;19.20;;
65009;SDS011;51556;50.002;22.014;2023-06-24T05:27:03;24.60;;;17.90;;
65009;SDS011;51556;50.002;22.014;2023-06-24T05:29:33;23.30;;;18.30;;
65009;SDS011;51556;50.002;22.014;2023-06-24T05:31:59;25.30;;;16.30;;
65009;SDS011;51556;50.002;22.014;2023-06-24T05:34:26;26.60;;;17.80;;
65009;SDS011;51556;50.002;22.014;2023-06-24T05:36:52;27.00;;;18.40;;
65009;SDS011;51556;50.002;22.014;2023-06-24T05:39:18;26.20;;;19.10;;
65009;SDS011;51556;50.002;22.014;2023-06-24T05:41:43;24.30;;;18.10;;
65009;SDS011;51556;50.002;22.014;2023-06-24T05:44:09;25.80;;;18.70;;
65009;SDS011;51556;50.002;22.014;2023-06-24T05:46:37;27.90;;;20.20;;
65009;SDS011;51556;50.002;22.014;2023-06-24T05:49:03;25.60;;;19.10;;
65009;SDS011;51556;50.002;22.014;2023-06-24T05:51:28;25.70;;;20.00;;
65009;SDS011;51556;50.002;22.014;2023-06-24T05:53:54;26.10;;;19.50;;
65009;SDS011;51556;50.002;22.014;2023-06-24T05:56:20;26.10;;;18.60;;
65009;SDS011;51556;50.002;22.014;2023-06-24T05:58:46;28.70;;;19.60;;
65009;SDS011;51556;50.002;22.014;2023-06-24T06:01:14;25.00;;;18.80;;
65009;SDS011;51556;50.002;22.014;2023-06-24T06:03:40;28.30;;;20.10;;
65009;SDS011;51556;50.002;22.014;2023-06-24T06:06:06;27.20;;;18.80;;
65009;SDS011;51556;50.002;22.014;2023-06-24T06:08:32;27.70;;;21.00;;
65009;SDS011;51556;50.002;22.014;2023-06-24T06:10:59;33.50;;;21.60;;
65009;SDS011;51556;50.002;22.014;2023-06-24T06:13:27;35.50;;;22.40;;
65009;SDS011;51556;50.002;22.014;2023-06-24T06:15:53;33.40;;;23.60;;
65009;SDS011;51556;50.002;22.014;2023-06-24T06:18:18;33.40;;;22.50;;
65009;SDS011;51556;50.002;22.014;2023-06-24T06:20:43;36.90;;;24.20;;
65009;SDS011;51556;50.002;22.014;2023-06-24T06:23:09;40.20;;;23.40;;
65009;SDS011;51556;50.002;22.014;2023-06-24T06:25:35;36.30;;;23.30;;
65009;SDS011;51556;50.002;22.014;2023-06-24T06:28:02;36.40;;;24.50;;
65009;SDS011;51556;50.002;22.014;2023-06-24T06:30:28;36.80;;;23.10;;
65009;SDS011;51556;50.002;22.014;2023-06-24T06:32:53;35.90;;;22.20;;
65009;SDS011;51556;50.002;22.014;2023-06-24T06:35:19;36.30;;;22.40;;
65009;SDS011;51556;50.002;22.014;2023-06-24T06:37:45;31.20;;;21.00;;
65009;SDS011;51556;50.002;22.014;2023-06-24T06:40:17;32.00;;;19.20;;
65009;SDS011;51556;50.002;22.014;2023-06-24T06:42:43;29.30;;;20.10;;
65009;SDS011;51556;50.002;22.014;2023-06-24T06:45:08;26.80;;;19.00;;
65009;SDS011;51556;50.002;22.014;2023-06-24T06:47:35;31.50;;;19.70;;
65009;SDS011;51556;50.002;22.014;2023-06-24T06:50:00;31.00;;;19.20;;
65009;SDS011;51556;50.002;22.014;2023-06-24T06:55:15;30.70;;;20.80;;
65009;SDS011;51556;50.002;22.014;2023-06-24T06:57:40;34.90;;;22.20;;
65009;SDS011;51556;50.002;22.014;2023-06-24T07:00:06;31.70;;;21.90;;
65009;SDS011;51556;50.002;22.014;2023-06-24T07:02:32;35.10;;;21.60;;
65009;SDS011;51556;50.002;22.014;2023-06-24T07:04:57;33.90;;;20.80;;
65009;SDS011;51556;50.002;22.014;2023-06-24T07:07:24;35.60;;;21.10;;
65009;SDS011;51556;50.002;22.014;2023-06-24T07:09:49;27.10;;;17.70;;
65009;SDS011;51556;50.002;22.014;2023-06-24T07:12:15;29.90;;;19.30;;
65009;SDS011;51556;50.002;22.014;2023-06-24T07:14:40;27.40;;;18.00;;
65009;SDS011;51556;50.002;22.014;2023-06-24T07:17:07;27.70;;;18.50;;
65009;SDS011;51556;50.002;22.014;2023-06-24T07:19:32;25.90;;;17.40;;
65009;SDS011;51556;50.002;22.014;2023-06-24T07:21:58;26.60;;;18.20;;
65009;SDS011;51556;50.002;22.014;2023-06-24T07:24:23;25.10;;;17.10;;
65009;SDS011;51556;50.002;22.014;2023-06-24T07:26:49;28.00;;;16.30;;
65009;SDS011;51556;50.002;22.014;2023-06-24T07:29:14;20.30;;;15.20;;
65009;SDS011;51556;50.002;22.014;2023-06-24T07:31:39;23.30;;;15.30;;
65009;SDS011;51556;50.002;22.014;2023-06-24T07:34:08;20.30;;;14.50;;
65009;SDS011;51556;50.002;22.014;2023-06-24T07:36:36;22.10;;;14.40;;
65009;SDS011;51556;50.002;22.014;2023-06-24T07:39:01;20.60;;;14.20;;
65009;SDS011;51556;50.002;22.014;2023-06-24T07:41:27;18.30;;;13.40;;
65009;SDS011;51556;50.002;22.014;2023-06-24T07:43:53;18.30;;;13.30;;
65009;SDS011;51556;50.002;22.014;2023-06-24T07:46:20;23.60;;;13.10;;
65009;SDS011;51556;50.002;22.014;2023-06-24T07:48:45;16.50;;;13.30;;
65009;SDS011;51556;50.002;22.014;2023-06-24T07:51:10;17.00;;;12.30;;
65009;SDS011;51556;50.002;22.014;2023-06-24T07:53:36;20.10;;;13.40;;
65009;SDS011;51556;50.002;22.014;2023-06-24T07:56:01;17.60;;;13.30;;
65009;SDS011;51556;50.002;22.014;2023-06-24T07:58:27;17.30;;;12.90;;
65009;SDS011;51556;50.002;22.014;2023-06-24T08:00:52;18.20;;;13.00;;
65009;SDS011;51556;50.002;22.014;2023-06-24T08:03:18;17.20;;;13.30;;
65009;SDS011;51556;50.002;22.014;2023-06-24T08:05:43;15.80;;;12.60;;
65009;SDS011;51556;50.002;22.014;2023-06-24T08:08:09;17.80;;;12.90;;
65009;SDS011;51556;50.002;22.014;2023-06-24T08:10:37;17.90;;;12.70;;
65009;SDS011;51556;50.002;22.014;2023-06-24T08:13:02;17.00;;;12.70;;
65009;SDS011;51556;50.002;22.014;2023-06-24T08:15:28;14.10;;;11.60;;
65009;SDS011;51556;50.002;22.014;2023-06-24T08:17:54;18.10;;;12.60;;
65009;SDS011;51556;50.002;22.014;2023-06-24T08:20:20;19.00;;;12.70;;
65009;SDS011;51556;50.002;22.014;2023-06-24T08:22:48;18.20;;;12.60;;
65009;SDS011;51556;50.002;22.014;2023-06-24T08:25:18;17.50;;;11.80;;
65009;SDS011;51556;50.002;22.014;2023-06-24T08:27:44;17.50;;;11.50;;
65009;SDS011;51556;50.002;22.014;2023-06-24T08:30:12;16.70;;;12.40;;
65009;SDS011;51556;50.002;22.014;2023-06-24T08:32:40;14.90;;;11.80;;
65009;SDS011;51556;50.002;22.014;2023-06-24T08:35:06;18.80;;;12.60;;
65009;SDS011;51556;50.002;22.014;2023-06-24T08:37:32;17.30;;;11.80;;
65009;SDS011;51556;50.002;22.014;2023-06-24T08:39:59;19.30;;;12.90;;
65009;SDS011;51556;50.002;22.014;2023-06-24T08:42:24;15.10;;;11.10;;
65009;SDS011;51556;50.002;22.014;2023-06-24T08:44:50;13.70;;;11.30;;
65009;SDS011;51556;50.002;22.014;2023-06-24T08:47:15;17.00;;;12.10;;
65009;SDS011;51556;50.002;22.014;2023-06-24T08:49:52;25.80;;;16.40;;
65009;SDS011;51556;50.002;22.014;2023-06-24T08:52:21;19.50;;;12.60;;
65009;SDS011;51556;50.002;22.014;2023-06-24T08:54:52;15.50;;;11.10;;
65009;SDS011;51556;50.002;22.014;2023-06-24T08:57:23;16.10;;;11.60;;
65009;SDS011;51556;50.002;22.014;2023-06-24T08:59:48;16.00;;;11.00;;
65009;SDS011;51556;50.002;22.014;2023-06-24T09:02:14;16.30;;;9.60;;
65009;SDS011;51556;50.002;22.014;2023-06-24T09:04:40;14.70;;;9.60;;
65009;SDS011;51556;50.002;22.014;2023-06-24T09:07:05;14.70;;;9.00;;
65009;SDS011;51556;50.002;22.014;2023-06-24T09:09:31;13.10;;;9.70;;
65009;SDS011;51556;50.002;22.014;2023-06-24T09:12:01;13.90;;;9.60;;
65009;SDS011;51556;50.002;22.014;2023-06-24T09:14:28;13.40;;;9.70;;
65009;SDS011;51556;50.002;22.014;2023-06-24T09:16:55;14.80;;;9.60;;
65009;SDS011;51556;50.002;22.014;2023-06-24T09:19:22;13.40;;;9.30;;
65009;SDS011;51556;50.002;22.014;2023-06-24T09:21:48;11.20;;;8.30;;
65009;SDS011;51556;50.002;22.014;2023-06-24T09:24:13;12.50;;;8.20;;
65009;SDS011;51556;50.002;22.014;2023-06-24T09:26:41;11.70;;;8.10;;
65009;SDS011;51556;50.002;22.014;2023-06-24T09:29:14;13.10;;;8.60;;
65009;SDS011;51556;50.002;22.014;2023-06-24T09:31:47;14.40;;;8.00;;
65009;SDS011;51556;50.002;22.014;2023-06-24T09:34:13;11.60;;;8.40;;
65009;SDS011;51556;50.002;22.014;2023-06-24T09:36:43;13.90;;;9.20;;
65009;SDS011;51556;50.002;22.014;2023-06-24T09:39:10;10.10;;;6.90;;
65009;SDS011;51556;50.002;22.014;2023-06-24T09:41:36;11.60;;;7.80;;
65009;SDS011;51556;50.002;22.014;2023-06-24T09:44:01;11.90;;;7.90;;
65009;SDS011;51556;50.002;22.014;2023-06-24T09:46:28;11.20;;;7.10;;
65009;SDS011;51556;50.002;22.014;2023-06-24T09:48:55;13.70;;;7.70;;
65009;SDS011;51556;50.002;22.014;2023-06-24T09:51:21;9.80;;;7.10;;
65009;SDS011;51556;50.002;22.014;2023-06-24T09:53:48;10.80;;;7.30;;
65009;SDS011;51556;50.002;22.014;2023-06-24T09:56:17;13.30;;;7.70;;
65009;SDS011;51556;50.002;22.014;2023-06-24T09:58:44;12.00;;;7.20;;
65009;SDS011;51556;50.002;22.014;2023-06-24T10:01:11;12.50;;;7.50;;
65009;SDS011;51556;50.002;22.014;2023-06-24T10:03:37;13.20;;;6.80;;
65009;SDS011;51556;50.002;22.014;2023-06-24T10:06:04;10.20;;;7.20;;
65009;SDS011;51556;50.002;22.014;2023-06-24T10:08:31;11.40;;;6.80;;
65009;SDS011;51556;50.002;22.014;2023-06-24T10:10:57;9.50;;;6.40;;
65009;SDS011;51556;50.002;22.014;2023-06-24T10:13:24;14.70;;;7.00;;
65009;SDS011;51556;50.002;22.014;2023-06-24T10:15:51;12.80;;;6.70;;
65009;SDS011;51556;50.002;22.014;2023-06-24T10:21:06;10.50;;;6.60;;
65009;SDS011;51556;50.002;22.014;2023-06-24T10:23:33;12.90;;;6.80;;
65009;SDS011;51556;50.002;22.014;2023-06-24T10:26:25;8.90;;;6.10;;
65009;SDS011;51556;50.002;22.014;2023-06-24T10:32:14;11.40;;;6.80;;
65009;SDS011;51556;50.002;22.014;2023-06-24T10:37:03;14.00;;;6.70;;
65009;SDS011;51556;50.002;22.014;2023-06-24T10:42:38;9.70;;;6.40;;
65009;SDS011;51556;50.002;22.014;2023-06-24T10:47:27;10.30;;;6.40;;
65009;SDS011;51556;50.002;22.014;2023-06-24T10:49:54;9.50;;;6.20;;
65009;SDS011;51556;50.002;22.014;2023-06-24T10:52:20;10.10;;;6.50;;
65009;SDS011;51556;50.002;22.014;2023-06-24T10:54:48;12.70;;;6.80;;
65009;SDS011;51556;50.002;22.014;2023-06-24T10:57:15;13.40;;;6.80;;
65009;SDS011;51556;50.002;22.014;2023-06-24T10:59:41;10.30;;;6.10;;
65009;SDS011;51556;50.002;22.014;2023-06-24T11:02:14;11.70;;;6.20;;
65009;SDS011;51556;50.002;22.014;2023-06-24T11:04:50;12.10;;;6.20;;
65009;SDS011;51556;50.002;22.014;2023-06-24T11:07:22;9.60;;;6.20;;
65009;SDS011;51556;50.002;22.014;2023-06-24T11:09:49;11.40;;;5.80;;
65009;SDS011;51556;50.002;22.014;2023-06-24T11:12:16;10.90;;;5.90;;
65009;SDS011;51556;50.002;22.014;2023-06-24T11:14:42;9.80;;;6.00;;
65009;SDS011;51556;50.002;22.014;2023-06-24T11:17:08;10.40;;;6.30;;
65009;SDS011;51556;50.002;22.014;2023-06-24T11:19:34;11.50;;;6.40;;
65009;SDS011;51556;50.002;22.014;2023-06-24T11:22:04;9.80;;;5.90;;
65009;SDS011;51556;50.002;22.014;2023-06-24T11:24:30;9.70;;;5.80;;
65009;SDS011;51556;50.002;22.014;2023-06-24T11:26:56;7.00;;;5.10;;
65009;SDS011;51556;50.002;22.014;2023-06-24T11:29:22;10.00;;;6.00;;
65009;SDS011;51556;50.002;22.014;2023-06-24T11:31:48;11.40;;;6.20;;
65009;SDS011;51556;50.002;22.014;2023-06-24T11:34:16;10.80;;;6.20;;
65009;SDS011;51556;50.002;22.014;2023-06-24T11:36:42;9.90;;;6.00;;
65009;SDS011;51556;50.002;22.014;2023-06-24T11:39:08;8.20;;;5.90;;
65009;SDS011;51556;50.002;22.014;2023-06-24T11:41:34;11.10;;;5.80;;
65009;SDS011;51556;50.002;22.014;2023-06-24T11:43:59;9.30;;;5.70;;
65009;SDS011;51556;50.002;22.014;2023-06-24T11:48:51;8.70;;;5.80;;
65009;SDS011;51556;50.002;22.014;2023-06-24T11:51:17;8.90;;;5.80;;
65009;SDS011;51556;50.002;22.014;2023-06-24T11:53:45;12.10;;;6.50;;
65009;SDS011;51556;50.002;22.014;2023-06-24T11:56:11;10.10;;;6.60;;
65009;SDS011;51556;50.002;22.014;2023-06-24T11:58:37;8.70;;;6.30;;
65009;SDS011;51556;50.002;22.014;2023-06-24T12:01:06;8.80;;;6.20;;
65009;SDS011;51556;50.002;22.014;2023-06-24T12:03:33;8.60;;;7.00;;
65009;SDS011;51556;50.002;22.014;2023-06-24T12:05:59;7.40;;;5.90;;
65009;SDS011;51556;50.002;22.014;2023-06-24T12:08:25;8.70;;;5.70;;
65009;SDS011;51556;50.002;22.014;2023-06-24T12:10:51;9.90;;;6.40;;
65009;SDS011;51556;50.002;22.014;2023-06-24T12:13:17;7.50;;;5.60;;
65009;SDS011;51556;50.002;22.014;2023-06-24T12:15:43;11.90;;;6.60;;
65009;SDS011;51556;50.002;22.014;2023-06-24T12:18:08;10.00;;;6.10;;
65009;SDS011;51556;50.002;22.014;2023-06-24T12:20:34;10.30;;;6.20;;
65009;SDS011;51556;50.002;22.014;2023-06-24T12:23:01;8.90;;;5.90;;
65009;SDS011;51556;50.002;22.014;2023-06-24T12:25:28;10.80;;;6.20;;
65009;SDS011;51556;50.002;22.014;2023-06-24T12:27:54;11.30;;;6.50;;
65009;SDS011;51556;50.002;22.014;2023-06-24T12:30:20;9.00;;;6.40;;
65009;SDS011;51556;50.002;22.014;2023-06-24T12:32:49;10.10;;;6.40;;
65009;SDS011;51556;50.002;22.014;2023-06-24T12:35:15;12.80;;;5.90;;
65009;SDS011;51556;50.002;22.014;2023-06-24T12:37:40;8.10;;;6.20;;
65009;SDS011;51556;50.002;22.014;2023-06-24T12:40:06;11.10;;;6.30;;
65009;SDS011;51556;50.002;22.014;2023-06-24T12:42:32;9.60;;;6.40;;
65009;SDS011;51556;50.002;22.014;2023-06-24T12:44:58;11.10;;;5.80;;
65009;SDS011;51556;50.002;22.014;2023-06-24T12:47:24;9.30;;;6.30;;
65009;SDS011;51556;50.002;22.014;2023-06-24T12:49:50;8.00;;;6.00;;
65009;SDS011;51556;50.002;22.014;2023-06-24T12:52:15;10.00;;;6.30;;
65009;SDS011;51556;50.002;22.014;2023-06-24T12:54:41;9.30;;;6.20;;
65009;SDS011;51556;50.002;22.014;2023-06-24T12:57:07;8.20;;;6.10;;
65009;SDS011;51556;50.002;22.014;2023-06-24T12:59:33;9.90;;;6.30;;
65009;SDS011;51556;50.002;22.014;2023-06-24T13:01:58;8.40;;;6.00;;
65009;SDS011;51556;50.002;22.014;2023-06-24T13:04:23;9.80;;;6.10;;
65009;SDS011;51556;50.002;22.014;2023-06-24T13:06:50;8.30;;;6.00;;
65009;SDS011;51556;50.002;22.014;2023-06-24T13:09:16;9.10;;;6.40;;
65009;SDS011;51556;50.002;22.014;2023-06-24T13:11:42;10.00;;;5.80;;
65009;SDS011;51556;50.002;22.014;2023-06-24T13:14:08;8.10;;;5.80;;
65009;SDS011;51556;50.002;22.014;2023-06-24T13:16:35;9.70;;;6.30;;
65009;SDS011;51556;50.002;22.014;2023-06-24T13:19:01;6.70;;;5.70;;
65009;SDS011;51556;50.002;22.014;2023-06-24T13:21:27;9.90;;;6.30;;
65009;SDS011;51556;50.002;22.014;2023-06-24T13:23:53;12.30;;;6.40;;
65009;SDS011;51556;50.002;22.014;2023-06-24T13:26:19;7.70;;;5.70;;
65009;SDS011;51556;50.002;22.014;2023-06-24T13:28:44;7.90;;;5.20;;
65009;SDS011;51556;50.002;22.014;2023-06-24T13:31:09;7.60;;;5.30;;
65009;SDS011;51556;50.002;22.014;2023-06-24T13:33:35;8.60;;;5.90;;
65009;SDS011;51556;50.002;22.014;2023-06-24T13:36:00;9.90;;;4.90;;
65009;SDS011;51556;50.002;22.014;2023-06-24T13:38:27;8.80;;;5.50;;
65009;SDS011;51556;50.002;22.014;2023-06-24T13:40:53;9.80;;;5.30;;
65009;SDS011;51556;50.002;22.014;2023-06-24T13:43:18;9.00;;;5.40;;
65009;SDS011;51556;50.002;22.014;2023-06-24T13:45:44;9.40;;;5.90;;
65009;SDS011;51556;50.002;22.014;2023-06-24T13:48:10;8.20;;;5.50;;
65009;SDS011;51556;50.002;22.014;2023-06-24T13:50:35;10.30;;;5.50;;
65009;SDS011;51556;50.002;22.014;2023-06-24T13:53:00;6.80;;;5.00;;
65009;SDS011;51556;50.002;22.014;2023-06-24T13:55:26;7.90;;;5.20;;
65009;SDS011;51556;50.002;22.014;2023-06-24T13:57:51;9.70;;;4.90;;
65009;SDS011;51556;50.002;22.014;2023-06-24T14:00:24;7.00;;;5.20;;
65009;SDS011;51556;50.002;22.014;2023-06-24T14:02:50;6.30;;;4.60;;
65009;SDS011;51556;50.002;22.014;2023-06-24T14:05:16;8.90;;;5.10;;
65009;SDS011;51556;50.002;22.014;2023-06-24T14:07:42;8.90;;;5.10;;
65009;SDS011;51556;50.002;22.014;2023-06-24T14:10:29;9.20;;;5.00;;
65009;SDS011;51556;50.002;22.014;2023-06-24T14:12:56;6.80;;;4.30;;
65009;SDS011;51556;50.002;22.014;2023-06-24T14:15:22;8.40;;;4.30;;
65009;SDS011;51556;50.002;22.014;2023-06-24T14:17:48;7.00;;;3.90;;
65009;SDS011;51556;50.002;22.014;2023-06-24T14:20:16;6.40;;;4.30;;
65009;SDS011;51556;50.002;22.014;2023-06-24T14:22:42;6.40;;;4.20;;
65009;SDS011;51556;50.002;22.014;2023-06-24T14:25:13;8.50;;;4.20;;
65009;SDS011;51556;50.002;22.014;2023-06-24T14:27:39;5.30;;;3.90;;
65009;SDS011;51556;50.002;22.014;2023-06-24T14:30:05;6.00;;;3.80;;
65009;SDS011;51556;50.002;22.014;2023-06-24T14:32:52;5.20;;;3.30;;
65009;SDS011;51556;50.002;22.014;2023-06-24T14:35:17;6.10;;;3.70;;
65009;SDS011;51556;50.002;22.014;2023-06-24T14:37:50;6.00;;;3.70;;
65009;SDS011;51556;50.002;22.014;2023-06-24T14:40:16;6.10;;;3.90;;
65009;SDS011;51556;50.002;22.014;2023-06-24T14:42:41;6.40;;;4.00;;
65009;SDS011;51556;50.002;22.014;2023-06-24T14:45:07;5.90;;;3.80;;
65009;SDS011;51556;50.002;22.014;2023-06-24T14:50:17;6.90;;;4.20;;
65009;SDS011;51556;50.002;22.014;2023-06-24T14:52:43;7.00;;;4.20;;